• Join FlightAware (Why Join?)
  • Login
  • US Flag 
10:35PM EDT


 

Airport Tracker/Info


-or-


 

Live Flight TrackerFlight Track Log ✈ ANT508 ✈ 10-May-2013 ✈ CYEG - CYXY

Flight Track Log - Related Links

Times and Time Zones

All times are in EDT time to prevent confusion due to time zone crossing. See the ANT508 flight status page for this flight to view local times or setup timezone preferences in your user account.

Time Position Orientation Groundspeed Altitude Reporting Facility
EDT Latitude Longitude Course Direction KTS MPH feet Rate Location/Type
05:04PM 53.3333 -113.5667 293° West 190 219 4,400  Level Edmonton Center
05:05PM 53.3833 -113.5167 31° Northeast 210 242 7,100 2,400 Climbing Edmonton Center
05:06PM 53.4333 -113.6167 310° West 260 299 9,300 2,040 Climbing Edmonton Center
05:07PM 53.4667 -113.7000 304° West 290 334 11,200 2,100 Climbing Edmonton Center
05:08PM 53.5167 -113.8667 297° West 330 380 13,600 2,700 Climbing Edmonton Center
05:09PM 53.6337 -114.4348 293° West  Level FlightAware Approximate
05:09PM 53.5500 -113.9833 296° West 330 380 16,600  Level Edmonton Center
05:10PM 53.6167 -114.1333 307° West 340 391 18,900 2,340 Climbing Edmonton Center
05:11PM 53.6500 -114.2833 291° West 350 403 21,300 2,220 Climbing Edmonton Center
05:12PM 53.6833 -114.4167 293° West 360 414 23,400 2,040 Climbing Edmonton Center
05:13PM 53.7500 -114.5667 307° West 360 414 25,400 1,800 Climbing Edmonton Center
05:14PM 53.8000 -114.7333 297° West 370 426 27,100 1,860 Climbing Edmonton Center
05:15PM 53.8333 -114.8833 291° West 370 426 29,200 2,100 Climbing Edmonton Center
05:16PM 53.9000 -115.0500 304° West 360 414 31,400 1,800 Climbing Edmonton Center
05:17PM 53.9333 -115.2000 291° West 360 414 32,900 1,500 Climbing Edmonton Center
05:18PM 53.9833 -115.3500 300° West 350 403 34,500 1,440 Climbing Edmonton Center
05:19PM 54.0333 -115.4833 303° West 350 403 35,800 720 Climbing Edmonton Center
05:20PM 54.0667 -115.6333 291° West 350 403 36,000 60 Climbing Edmonton Center
05:21PM 54.1167 -115.8000 297° West 350 403 36,000  Level Edmonton Center
05:22PM 54.1667 -115.9333 303° West 350 403 36,000  Level Edmonton Center
05:23PM 54.2333 -116.0667 311° West 350 403 36,000  Level Edmonton Center
05:24PM 54.3000 -116.2000 311° West 350 403 36,000  Level Edmonton Center
05:25PM 54.3500 -116.3333 303° West 350 403 36,000  Level Edmonton Center
05:26PM 54.4167 -116.4333 319° Northwest 360 414 36,000  Level Edmonton Center
05:27PM 54.4833 -116.6000 305° West 360 414 36,000  Level Edmonton Center
05:28PM 54.5333 -116.7167 306° West 360 414 36,000  Level Edmonton Center
05:29PM 54.6167 -116.8500 317° Northwest 350 403 36,000  Level Edmonton Center
05:30PM 54.6667 -116.9833 303° West 360 414 36,000  Level Edmonton Center
05:31PM 54.7333 -117.1333 308° West 350 403 36,000  Level Edmonton Center
05:32PM 54.7833 -117.2667 303° West 360 414 36,000  Level Edmonton Center
05:33PM 54.8667 -117.4000 317° Northwest 360 414 36,000  Level Edmonton Center
05:34PM 54.9167 -117.5500 300° West 360 414 36,000  Level Edmonton Center
05:35PM 54.9833 -117.6833 311° West 360 414 36,000  Level Edmonton Center
05:36PM 55.0333 -117.8167 303° West 360 414 36,000  Level Edmonton Center
05:37PM 55.1167 -117.9667 314° West 360 414 36,000  Level Edmonton Center
05:38PM 55.1667 -118.1000 303° West 360 414 36,000  Level Edmonton Center
05:39PM 55.2333 -118.2167 315° West 360 414 36,000  Level Edmonton Center
05:40PM 55.2833 -118.3667 300° West 360 414 36,000  Level Edmonton Center
05:41PM 55.3667 -118.5000 318° Northwest 360 414 36,000  Level Edmonton Center
05:42PM 55.4167 -118.6500 300° West 360 414 36,000  Level Edmonton Center
05:43PM 55.4833 -118.8000 308° West 360 414 36,000  Level Edmonton Center
05:44PM 55.5500 -118.9333 312° West 370 426 36,000  Level Edmonton Center
05:45PM 55.6000 -119.0833 301° West 370 426 36,000  Level Edmonton Center
05:46PM 55.6667 -119.2333 308° West 370 426 36,000  Level Edmonton Center
05:47PM 55.7167 -119.3667 304° West 370 426 36,000  Level Edmonton Center
05:48PM 55.7833 -119.5167 308° West 370 426 36,000  Level Edmonton Center
05:49PM 55.8333 -119.6667 301° West 370 426 36,000  Level Edmonton Center
05:50PM 55.9000 -119.8500 303° West 370 426 36,000  Level Edmonton Center
05:51PM 55.9667 -120.0000 308° West 370 426 36,000  Level Edmonton Center
05:52PM 56.0333 -120.1167 316° Northwest 370 426 36,000  Level Edmonton Center
05:53PM 56.0833 -120.2833 298° West 370 426 36,000  Level Edmonton Center
05:54PM 56.1500 -120.4500 306° West 370 426 36,000  Level Edmonton Center
05:55PM 56.2000 -120.5833 304° West 370 426 36,000  Level Edmonton Center
05:56PM 56.2667 -120.7333 309° West 370 426 36,000  Level Edmonton Center
05:57PM 56.3333 -120.9000 306° West 370 426 36,000  Level Edmonton Center
05:58PM 56.3833 -121.0333 304° West 370 426 36,000  Level Edmonton Center
05:59PM 56.4500 -121.2000 306° West 380 437 36,000  Level Edmonton Center
06:00PM 56.5167 -121.3500 309° West 380 437 36,000  Level Edmonton Center
06:01PM 56.5833 -121.5333 303° West 380 437 36,000  Level Edmonton Center
06:02PM 56.6333 -121.6833 301° West 380 437 36,000  Level Edmonton Center
06:03PM 56.7000 -121.8167 312° West 380 437 36,000  Level Edmonton Center
06:04PM 56.7667 -122.0000 304° West 380 437 36,000  Level Edmonton Center
06:05PM 56.8333 -122.1500 309° West 380 437 36,000  Level Edmonton Center
06:06PM 56.8667 -122.3000 292° West 380 437 36,000  Level Edmonton Center
06:07PM 56.9333 -122.4667 306° West 380 437 36,000  Level Edmonton Center
06:08PM 57.0000 -122.6500 304° West 380 437 36,000  Level Edmonton Center
06:09PM 57.0667 -122.8167 306° West 380 437 36,000  Level Edmonton Center
06:10PM 57.1333 -122.9833 306° West 380 437 36,000  Level Edmonton Center
06:11PM 57.1833 -123.1333 302° West 390 449 36,000  Level Edmonton Center
06:12PM 57.2500 -123.3333 302° West 390 449 36,000  Level Edmonton Center
06:13PM 57.3000 -123.4833 302° West 390 449 36,000  Level Edmonton Center
06:14PM 57.3500 -123.6500 299° West 390 449 36,000  Level Edmonton Center
06:15PM 57.4167 -123.8167 307° West 390 449 36,000  Level Edmonton Center
06:16PM 57.4833 -124.0000 304° West 390 449 36,000  Level Edmonton Center
06:17PM 57.5333 -124.1667 299° West 390 449 36,000  Level Edmonton Center
06:18PM 57.6000 -124.3333 307° West 390 449 36,000  Level Edmonton Center
06:19PM 57.6500 -124.5333 295° West 390 449 36,000  Level Edmonton Center
06:20PM 57.7000 -124.6833 302° West 400 460 36,000  Level Edmonton Center
06:21PM 57.7833 -124.8333 316° Northwest 390 449 36,000  Level Edmonton Center
06:23PM 57.8703 -125.0765 304° West  Level FlightAware Approximate
06:30PM 58.2653 -126.2141 304° West  Level FlightAware Approximate
06:31PM 58.3200 -126.3797 301° West  Level FlightAware Approximate
06:32PM 58.3731 -126.5475 301° West  Level FlightAware Approximate
06:33PM 58.4260 -126.7158 301° West  Level FlightAware Approximate
06:34PM 58.4787 -126.8847 301° West  Level FlightAware Approximate
06:35PM 58.5311 -127.0540 301° West  Level FlightAware Approximate
06:36PM 58.5833 -127.2238 301° West  Level FlightAware Approximate
06:37PM 58.6353 -127.3941 300° West  Level FlightAware Approximate
06:38PM 58.6870 -127.5649 300° West  Level FlightAware Approximate
06:39PM 58.7385 -127.7363 300° West  Level FlightAware Approximate
06:40PM 58.7898 -127.9081 300° West  Level FlightAware Approximate
06:41PM 58.8409 -128.0805 300° West  Level FlightAware Approximate
06:42PM 58.8917 -128.2534 300° West  Level FlightAware Approximate
06:43PM 58.9423 -128.4267 300° West  Level FlightAware Approximate
06:44PM 58.9927 -128.6006 299° West  Level FlightAware Approximate
06:45PM 59.0429 -128.7750 299° West  Level FlightAware Approximate
06:46PM 59.0928 -128.9499 299° West  Level FlightAware Approximate
06:47PM 59.1424 -129.1253 299° West  Level FlightAware Approximate
06:48PM 59.1919 -129.3012 299° West  Level FlightAware Approximate
06:49PM 59.2411 -129.4776 299° West  Level FlightAware Approximate
06:50PM 59.2900 -129.6546 299° West  Level FlightAware Approximate
06:51PM 59.3387 -129.8320 298° West  Level FlightAware Approximate
06:52PM 59.3872 -130.0099 298° West  Level FlightAware Approximate
06:53PM 59.4354 -130.1884 298° West  Level FlightAware Approximate
06:54PM 59.4834 -130.3674 298° West  Level FlightAware Approximate
06:55PM 59.5311 -130.5468 298° West  Level FlightAware Approximate
06:56PM 59.5786 -130.7268 298° West  Level FlightAware Approximate
06:57PM 59.6259 -130.9073 297° West  Level FlightAware Approximate
06:58PM 59.6685 -131.0922 292° West  Level FlightAware Approximate
06:59PM 59.7184 -131.2678 299° West  Level Estimated
07:00PM 59.7682 -131.4438 299° West  Level Estimated
07:01PM 59.8176 -131.6204 299° West  Level Estimated
07:02PM 59.8669 -131.7975 299° West  Level Estimated
07:03PM 59.9159 -131.9751 299° West  Level Estimated
07:04PM 59.9647 -132.1533 299° West  Level Estimated
07:05PM 60.0132 -132.3320 299° West  Level Estimated
07:06PM 60.0615 -132.5112 298° West  Level Estimated
07:07PM 60.1095 -132.6909 298° West  Level Estimated
07:08PM 60.1573 -132.8712 298° West  Level Estimated
07:09PM 60.2049 -133.0519 298° West  Level Estimated
07:10PM 60.2522 -133.2332 298° West  Level Estimated
07:11PM 60.2992 -133.4150 298° West  Level Estimated
07:12PM 60.3460 -133.5974 297° West  Level Estimated
07:13PM 60.3926 -133.7802 297° West  Level Estimated
07:14PM 60.4389 -133.9636 297° West  Level Estimated
07:15PM 60.4850 -134.1476 297° West  Level Estimated
07:16PM 60.5308 -134.3320 297° West  Level Estimated
07:17PM 60.5763 -134.5169 297° West  Level Estimated
07:18PM 60.6216 -134.7024 297° West  Level Estimated
07:19PM 60.6666 -134.8884 296° West  Level Estimated
07:20PM 60.7095 -135.0673 296° West  Level Estimated
07:21PM 60.7095 -135.0673 North  Level Estimated
07:22PM 60.7095 -135.0673 North  Level Estimated
07:23PM 60.7095 -135.0673 North  Level Estimated
07:24PM 60.7095 -135.0673 North  Level Estimated
07:25PM 60.7095 -135.0673 North  Level Estimated
07:26PM 60.7095 -135.0673 North  Level Estimated
07:27PM 60.7095 -135.0673 North  Level Estimated
07:28PM 60.7095 -135.0673 North  Level Estimated
07:29PM 60.7095 -135.0673 North  Level Estimated